Aviation Digital Data Service (ADDS)

Output produced by METARs form (1456 UTC 22 April 2019)
found at http://www.aviationweather.gov/metar/data/
 
Forecast for: WBKW (TAWAU/KALIMANTAN, MY)
Text: TAF WBKW 221100Z 2212/2312 33005KT 9999 FEW017
Forecast period: 1200 UTC 22 April 2019 to 1200 UTC 23 April 2019
Forecast type: FROM: standard forecast or significant change
Winds: from the NNW (330 degrees) at 6 MPH (5 knots; 2.6 m/s)
Visibility: 6 or more miles 10+ km)
Ceiling: at least 12,000 feet AGL
Clouds: few clouds at 1700 feet AGL
Weather: no significant weather forecast for this period